createdAt,value
2022-09-15T00:00:26.035Z,100689.28
2022-09-15T00:02:58.817Z,100682.13
2022-09-15T00:05:32.977Z,100688.34
2022-09-15T00:08:05.728Z,100678.81
2022-09-15T00:10:38.419Z,100693.38
2022-09-15T00:13:11.070Z,100676.88
2022-09-15T00:15:44.112Z,100670.09
2022-09-15T00:18:16.839Z,100673.31
2022-09-15T00:20:50.863Z,100682.06
2022-09-15T00:23:23.590Z,100684.00
2022-09-15T00:25:56.334Z,100675.41
2022-09-15T00:28:29.001Z,100676.97
2022-09-15T00:31:01.667Z,100673.88
2022-09-15T00:33:34.704Z,100679.09
2022-09-15T00:36:09.993Z,100682.69
2022-09-15T00:38:43.097Z,100685.13
2022-09-15T00:41:19.261Z,100687.53
2022-09-15T00:43:54.672Z,100681.13
2022-09-15T00:46:31.108Z,100690.66
2022-09-15T00:49:10.598Z,100693.13
2022-09-15T00:51:50.600Z,100695.56
2022-09-15T00:54:28.035Z,100690.06
2022-09-15T00:57:04.829Z,100690.94
2022-09-15T00:59:41.245Z,100688.88
2022-09-15T01:02:18.557Z,100686.47
2022-09-15T01:04:58.027Z,100686.81
2022-09-15T01:07:38.618Z,100692.34
2022-09-15T01:10:15.801Z,100689.09
2022-09-15T01:12:48.960Z,100690.50
2022-09-15T01:15:25.595Z,100686.75
2022-09-15T01:18:10.391Z,100686.13
2022-09-15T01:21:03.426Z,100687.72
2022-09-15T01:23:59.407Z,100685.81
2022-09-15T01:26:58.417Z,100688.88
2022-09-15T01:29:48.844Z,100680.91
2022-09-15T01:32:43.452Z,100682.59
2022-09-15T01:35:28.024Z,100682.25
2022-09-15T01:38:07.720Z,100689.84
2022-09-15T01:40:45.449Z,100682.38
2022-09-15T01:43:22.145Z,100686.38
2022-09-15T01:45:57.898Z,100691.91
2022-09-15T01:48:32.558Z,100683.59
2022-09-15T01:51:08.709Z,100686.38
2022-09-15T01:53:42.112Z,100687.94
2022-09-15T01:56:14.882Z,100695.50
2022-09-15T01:58:50.895Z,100694.72
2022-09-15T02:01:31.624Z,100695.91
2022-09-15T02:04:10.736Z,100699.38
2022-09-15T02:06:53.322Z,100696.16
2022-09-15T02:09:30.739Z,100700.09
2022-09-15T02:12:12.575Z,100693.22
2022-09-15T02:14:53.200Z,100691.00
2022-09-15T02:17:32.645Z,100689.38
2022-09-15T02:20:15.623Z,100694.47
2022-09-15T02:22:53.887Z,100703.53
2022-09-15T02:25:32.046Z,100694.97
2022-09-15T02:28:09.738Z,100695.63
2022-09-15T02:30:46.611Z,100697.22
2022-09-15T02:33:24.499Z,100688.81
2022-09-15T02:35:57.364Z,100694.78
2022-09-15T02:38:34.988Z,100699.06
2022-09-15T02:41:07.903Z,100704.66
2022-09-15T02:43:45.381Z,100696.69
2022-09-15T02:46:21.023Z,100695.22
2022-09-15T02:48:54.969Z,100705.16
2022-09-15T02:51:27.680Z,100709.47
2022-09-15T02:54:01.253Z,100709.00
2022-09-15T02:56:33.905Z,100700.63
2022-09-15T02:59:06.564Z,100698.69
2022-09-15T03:01:39.293Z,100703.47
2022-09-15T03:04:13.448Z,100696.00
2022-09-15T03:06:46.214Z,100702.81
2022-09-15T03:09:18.951Z,100705.53
2022-09-15T03:11:51.655Z,100691.53
2022-09-15T03:14:24.292Z,100697.13
2022-09-15T03:16:58.359Z,100703.88
2022-09-15T03:19:32.857Z,100696.34
2022-09-15T03:22:05.549Z,100716.97
2022-09-15T03:24:38.686Z,100708.31
2022-09-15T03:27:11.231Z,100715.53
2022-09-15T03:29:44.078Z,100723.72
2022-09-15T03:32:16.841Z,100722.56
2022-09-15T03:34:52.443Z,100721.09
2022-09-15T03:37:28.171Z,100721.09
2022-09-15T03:40:00.969Z,100723.31
2022-09-15T03:42:33.649Z,100724.22
2022-09-15T03:45:06.887Z,100723.72
2022-09-15T03:47:39.618Z,100721.91
2022-09-15T03:50:13.861Z,100718.66
2022-09-15T03:52:46.498Z,100717.09
2022-09-15T03:55:19.136Z,100723.34
2022-09-15T03:57:52.535Z,100717.88
2022-09-15T04:00:25.305Z,100721.44
2022-09-15T04:02:57.918Z,100724.56
2022-09-15T04:05:31.945Z,100719.75
2022-09-15T04:08:04.634Z,100719.31
2022-09-15T04:10:39.962Z,100720.84
2022-09-15T04:13:12.792Z,100725.28
2022-09-15T04:15:45.485Z,100730.41
2022-09-15T04:18:18.071Z,100724.88
2022-09-15T04:20:52.388Z,100725.22
2022-09-15T04:23:25.001Z,100729.50
2022-09-15T04:25:58.544Z,100727.59
2022-09-15T04:28:34.193Z,100724.44
2022-09-15T04:31:09.484Z,100729.50
2022-09-15T04:33:43.525Z,100725.59
2022-09-15T04:36:21.071Z,100734.19
2022-09-15T04:38:53.885Z,100724.69
2022-09-15T04:41:27.470Z,100732.41
2022-09-15T04:44:00.419Z,100732.06
2022-09-15T04:46:33.573Z,100728.06
2022-09-15T04:49:06.299Z,100727.59
2022-09-15T04:51:40.498Z,100729.28
2022-09-15T04:54:13.153Z,100730.63
2022-09-15T04:56:46.318Z,100726.84
2022-09-15T04:59:20.103Z,100726.38
2022-09-15T05:01:55.959Z,100728.38
2022-09-15T05:04:28.839Z,100721.31
2022-09-15T05:07:02.844Z,100723.22
2022-09-15T05:09:35.542Z,100720.06
2022-09-15T05:12:08.429Z,100727.22
2022-09-15T05:14:41.156Z,100727.63
2022-09-15T05:17:13.838Z,100733.63
2022-09-15T05:19:47.112Z,100727.34
2022-09-15T05:22:21.183Z,100722.53
2022-09-15T05:24:53.812Z,100727.34
2022-09-15T05:27:26.403Z,100728.66
2022-09-15T05:30:23.422Z,100725.06
2022-09-15T05:32:51.881Z,100715.97
2022-09-15T05:35:24.554Z,100724.09
2022-09-15T05:37:58.774Z,100718.97
2022-09-15T05:40:31.524Z,100721.78
2022-09-15T05:43:04.205Z,100713.19
2022-09-15T05:45:36.917Z,100724.09
2022-09-15T05:48:09.688Z,100723.50
2022-09-15T05:50:50.212Z,100723.56
2022-09-15T05:53:24.946Z,100726.13
2022-09-15T05:55:58.428Z,100727.47
2022-09-15T05:58:31.493Z,100732.84
2022-09-15T06:01:04.699Z,100727.72
2022-09-15T06:03:37.748Z,100737.53
2022-09-15T06:06:10.305Z,100741.09
2022-09-15T06:08:48.267Z,100735.97
2022-09-15T06:11:22.866Z,100742.66
2022-09-15T06:13:55.686Z,100749.34
2022-09-15T06:16:29.025Z,100745.38
2022-09-15T06:19:01.983Z,100750.97
2022-09-15T06:21:34.630Z,100749.78
2022-09-15T06:24:08.967Z,100762.44
2022-09-15T06:26:41.587Z,100758.09
2022-09-15T06:29:14.228Z,100760.50
2022-09-15T06:31:46.994Z,100772.09
2022-09-15T06:34:19.786Z,100772.69
2022-09-15T06:36:52.468Z,100771.97
2022-09-15T06:39:26.657Z,100770.66
2022-09-15T06:42:02.765Z,100762.59
2022-09-15T06:44:37.150Z,100767.88
2022-09-15T06:47:10.664Z,100765.88
2022-09-15T06:49:43.413Z,100774.50
2022-09-15T06:52:16.085Z,100771.34
2022-09-15T06:54:50.453Z,100779.19
2022-09-15T06:57:23.133Z,100779.94
2022-09-15T06:59:55.787Z,100780.84
2022-09-15T07:02:28.544Z,100795.41
2022-09-15T07:05:01.283Z,100802.97
2022-09-15T07:07:33.995Z,100800.53
2022-09-15T07:10:08.764Z,100794.94
2022-09-15T07:12:41.424Z,100792.16
2022-09-15T07:15:14.175Z,100803.31
2022-09-15T07:17:46.876Z,100803.69
2022-09-15T07:20:19.608Z,100815.16
2022-09-15T07:22:52.265Z,100814.19
2022-09-15T07:25:26.418Z,100820.09
2022-09-15T07:27:59.093Z,100821.78
2022-09-15T07:30:31.766Z,100827.38
2022-09-15T07:33:04.446Z,100824.69
2022-09-15T07:35:42.866Z,100824.25
2022-09-15T07:38:15.514Z,100830.66
2022-09-15T07:40:49.756Z,100828.91
2022-09-15T07:43:22.357Z,100825.03
2022-09-15T07:45:57.781Z,100832.09
2022-09-15T07:48:30.903Z,100833.84
2022-09-15T07:51:03.714Z,100832.16
2022-09-15T07:53:36.381Z,100842.56
2022-09-15T07:56:10.660Z,100844.38
2022-09-15T07:58:43.334Z,100859.03
2022-09-15T08:01:17.777Z,100854.88
2022-09-15T08:03:52.199Z,100861.66
2022-09-15T08:06:26.791Z,100859.66
2022-09-15T08:09:00.985Z,100873.59
2022-09-15T08:11:35.438Z,100872.38
2022-09-15T08:14:08.143Z,100885.03
2022-09-15T08:16:40.926Z,100896.66
2022-09-15T08:19:13.728Z,100897.44
2022-09-15T08:21:46.358Z,100892.97
2022-09-15T08:24:19.255Z,100900.13
2022-09-15T08:26:55.176Z,100895.25
2022-09-15T08:29:29.270Z,100901.53
2022-09-15T08:32:02.274Z,100900.63
2022-09-15T08:34:34.868Z,100901.97
2022-09-15T08:37:07.539Z,100909.13
2022-09-15T08:39:40.216Z,100903.63
2022-09-15T08:42:17.421Z,100905.19
2022-09-15T08:44:55.436Z,100909.06
2022-09-15T08:47:32.984Z,100906.50
2022-09-15T08:50:12.413Z,100910.06
2022-09-15T08:52:49.832Z,100907.44
2022-09-15T08:55:38.728Z,100918.63
2022-09-15T08:58:17.231Z,100910.63
2022-09-15T09:00:51.830Z,100908.00
2022-09-15T09:03:48.066Z,100923.47
2022-09-15T09:06:29.302Z,100917.25
2022-09-15T09:09:12.636Z,100919.44
2022-09-15T09:11:59.535Z,100912.22
2022-09-15T09:14:43.862Z,100914.72
2022-09-15T09:17:32.233Z,100927.09
2022-09-15T09:20:25.515Z,100918.47
2022-09-15T09:23:02.224Z,100918.72
2022-09-15T09:25:36.124Z,100920.13
2022-09-15T09:28:24.160Z,100922.06
2022-09-15T09:31:02.947Z,100925.50
2022-09-15T09:33:47.549Z,100920.19
2022-09-15T09:36:21.020Z,100920.88
2022-09-15T09:38:54.346Z,100924.13
2022-09-15T09:41:35.689Z,100929.59
2022-09-15T09:44:13.092Z,100922.88
2022-09-15T09:46:47.793Z,100928.03
2022-09-15T09:49:24.798Z,100935.16
2022-09-15T09:51:59.984Z,100935.84
2022-09-15T09:54:35.457Z,100935.16
2022-09-15T09:57:29.145Z,100937.84
2022-09-15T10:00:02.009Z,100929.41
2022-09-15T10:02:48.339Z,100932.34
2022-09-15T10:05:21.676Z,100922.78
2022-09-15T10:07:54.364Z,100928.34
2022-09-15T10:10:32.113Z,100932.16
2022-09-15T10:13:05.039Z,100929.19
2022-09-15T10:15:38.143Z,100926.91
2022-09-15T10:18:29.026Z,100924.25
2022-09-15T10:21:03.558Z,100927.38
2022-09-15T10:23:36.758Z,100926.97
2022-09-15T10:26:31.966Z,100941.63
2022-09-15T10:29:16.240Z,100934.03
2022-09-15T10:31:49.126Z,100926.34
2022-09-15T10:34:30.723Z,100928.97
2022-09-15T10:37:09.530Z,100935.84
2022-09-15T10:39:53.204Z,100938.22
2022-09-15T10:42:41.912Z,100940.13
2022-09-15T10:45:30.011Z,100941.72
2022-09-15T10:48:20.952Z,100943.59
2022-09-15T10:50:59.787Z,100945.41
2022-09-15T10:53:57.585Z,100937.72
2022-09-15T10:56:34.968Z,100945.19
2022-09-15T10:59:23.800Z,100947.44
2022-09-15T11:02:17.604Z,100945.88
2022-09-15T11:05:11.709Z,100953.09
2022-09-15T11:07:55.273Z,100957.34
2022-09-15T11:10:36.727Z,100959.34
2022-09-15T11:13:19.172Z,100960.13
2022-09-15T11:16:04.666Z,100958.47
2022-09-15T11:18:53.078Z,100964.50
2022-09-15T11:21:30.817Z,100965.47
2022-09-15T11:24:27.102Z,100952.09
2022-09-15T11:27:05.547Z,100957.69
2022-09-15T11:29:57.332Z,100961.00
2022-09-15T11:32:35.253Z,100967.38
2022-09-15T11:35:38.003Z,100964.34
2022-09-15T11:38:32.415Z,100962.00
2022-09-15T11:41:17.289Z,100963.81
2022-09-15T11:44:17.527Z,100966.59
2022-09-15T11:47:07.512Z,100963.13
2022-09-15T11:49:46.593Z,100969.25
2022-09-15T11:52:37.353Z,100967.69
2022-09-15T11:55:21.646Z,100964.53
2022-09-15T11:58:03.092Z,100967.91
2022-09-15T12:00:43.249Z,100969.59
2022-09-15T12:03:22.931Z,100968.53
2022-09-15T12:05:59.378Z,100965.41
2022-09-15T12:08:39.104Z,100971.59
2022-09-15T12:11:18.941Z,100965.94
2022-09-15T12:13:54.596Z,100969.38
2022-09-15T12:16:28.634Z,100975.28
2022-09-15T12:19:08.296Z,100972.09
2022-09-15T12:21:51.970Z,100971.06
2022-09-15T12:24:33.751Z,100962.16
2022-09-15T12:27:06.450Z,100969.19
2022-09-15T12:29:49.643Z,100975.34
2022-09-15T12:32:24.282Z,100974.44
2022-09-15T12:35:27.626Z,100973.91
2022-09-15T12:38:01.355Z,100971.09
2022-09-15T12:40:37.093Z,100975.91
2022-09-15T12:43:22.856Z,100975.00
2022-09-15T12:45:59.083Z,100977.81
2022-09-15T12:48:34.315Z,100979.94
2022-09-15T12:51:10.820Z,100981.72
2022-09-15T12:53:53.920Z,100990.00
2022-09-15T12:56:27.952Z,100985.75
2022-09-15T12:59:06.775Z,100981.97
2022-09-15T13:01:51.530Z,100994.25
2022-09-15T13:04:43.700Z,100987.97
2022-09-15T13:07:33.394Z,100994.09
2022-09-15T13:10:32.603Z,101003.19
2022-09-15T13:13:32.739Z,100997.56
2022-09-15T13:16:11.569Z,100991.44
2022-09-15T13:18:47.966Z,101008.19
2022-09-15T13:21:24.020Z,101013.66
2022-09-15T13:23:57.003Z,101011.31
2022-09-15T13:26:31.533Z,101011.56
2022-09-15T13:29:06.329Z,101014.66
2022-09-15T13:31:50.847Z,101022.72
2022-09-15T13:35:16.819Z,101009.44
2022-09-15T13:38:27.674Z,101020.72
2022-09-15T13:41:20.466Z,101004.63
2022-09-15T13:44:24.187Z,101002.63
2022-09-15T13:47:14.411Z,101003.53
2022-09-15T13:49:52.522Z,100999.50
2022-09-15T13:52:43.666Z,100996.38
2022-09-15T13:55:21.625Z,100996.38
2022-09-15T14:00:58.351Z,100992.56
2022-09-15T14:03:40.457Z,100995.03
2022-09-15T14:06:16.239Z,100993.66
2022-09-15T14:08:52.142Z,100994.34
2022-09-15T14:11:30.116Z,100997.47
2022-09-15T14:14:03.038Z,100991.88
2022-09-15T14:16:36.504Z,100996.91
2022-09-15T14:19:33.267Z,100998.47
2022-09-15T14:22:26.129Z,100994.34
2022-09-15T14:25:01.226Z,100990.31
2022-09-15T14:27:37.013Z,100996.25
2022-09-15T14:30:18.963Z,101008.75
2022-09-15T14:32:54.318Z,101007.38
2022-09-15T14:35:30.033Z,101001.47
2022-09-15T14:38:02.768Z,100996.34
2022-09-15T14:40:37.526Z,101002.94
2022-09-15T14:43:28.089Z,100992.31
2022-09-15T14:46:11.338Z,101001.81
2022-09-15T14:48:43.937Z,100999.78
2022-09-15T14:51:28.531Z,101003.47
2022-09-15T14:54:03.249Z,101006.81
2022-09-15T14:56:38.088Z,101004.47
2022-09-15T14:59:18.083Z,101006.66
2022-09-15T15:01:59.557Z,101004.94
2022-09-15T15:04:39.340Z,101015.13
2022-09-15T15:07:19.767Z,101017.72
2022-09-15T15:09:56.518Z,101016.41
2022-09-15T15:12:34.457Z,101006.16
2022-09-15T15:15:12.557Z,101016.94
2022-09-15T15:17:49.192Z,101013.63
2022-09-15T15:20:23.967Z,101011.81
2022-09-15T15:23:15.544Z,101001.75
2022-09-15T15:25:48.407Z,101009.06
2022-09-15T15:28:32.949Z,101001.03
2022-09-15T15:31:16.055Z,100993.56
2022-09-15T15:33:50.319Z,101002.00
2022-09-15T15:36:25.503Z,101014.34
2022-09-15T15:39:00.449Z,101008.09
2022-09-15T15:41:37.239Z,101013.09
2022-09-15T15:44:27.900Z,101012.09
2022-09-15T15:47:23.643Z,101019.88
2022-09-15T15:50:16.132Z,101014.56
2022-09-15T15:52:50.314Z,101021.47
2022-09-15T15:55:25.414Z,101022.69
2022-09-15T15:57:58.465Z,101017.59
2022-09-15T16:00:36.612Z,101018.41
2022-09-15T16:03:11.710Z,101024.63
2022-09-15T16:05:46.510Z,101024.47
2022-09-15T16:08:25.742Z,101020.78
2022-09-15T16:11:00.264Z,101018.53
2022-09-15T16:13:32.935Z,101026.03
2022-09-15T16:16:14.623Z,101026.97
2022-09-15T16:18:48.911Z,101026.69
2022-09-15T16:21:27.281Z,101023.56
2022-09-15T16:23:59.911Z,101027.59
2022-09-15T16:26:34.512Z,101024.25
2022-09-15T16:29:07.384Z,101028.88
2022-09-15T16:31:40.676Z,101031.66
2022-09-15T16:34:18.538Z,101028.59
2022-09-15T16:36:51.685Z,101026.50
2022-09-15T16:39:24.475Z,101027.13
2022-09-15T16:44:36.138Z,101033.97
2022-09-15T16:47:09.144Z,101030.41
2022-09-15T16:49:43.102Z,101026.13
2022-09-15T16:52:17.061Z,101027.97
2022-09-15T16:54:49.663Z,101023.34
2022-09-15T16:57:22.364Z,101030.31
2022-09-15T16:59:54.986Z,101024.97
2022-09-15T17:02:27.747Z,101025.44
2022-09-15T17:05:01.857Z,101030.13
2022-09-15T17:07:34.494Z,101024.25
2022-09-15T17:10:08.495Z,101030.38
2022-09-15T17:12:41.193Z,101022.91
2022-09-15T17:15:21.597Z,101026.19
2022-09-15T17:17:54.593Z,101028.72
2022-09-15T17:20:28.729Z,101030.53
2022-09-15T17:23:02.050Z,101040.19
2022-09-15T17:25:37.994Z,101043.75
2022-09-15T17:28:10.673Z,101037.13
2022-09-15T17:30:43.645Z,101036.03
2022-09-15T17:33:16.900Z,101033.78
2022-09-15T17:35:51.290Z,101029.91
2022-09-15T17:38:25.182Z,101029.06
2022-09-15T17:40:58.300Z,101025.56
2022-09-15T17:43:32.462Z,101034.75
2022-09-15T17:46:05.187Z,101028.50
2022-09-15T17:48:38.904Z,101030.19
2022-09-15T17:51:17.271Z,101035.03
2022-09-15T17:53:50.104Z,101031.88
2022-09-15T17:56:22.975Z,101027.66
2022-09-15T17:58:55.708Z,101025.72
2022-09-15T18:01:28.489Z,101025.72
2022-09-15T18:04:01.224Z,101025.81
2022-09-15T18:06:35.765Z,101025.72
2022-09-15T18:09:08.781Z,101028.97
2022-09-15T18:11:41.498Z,101026.72
2022-09-15T18:14:14.156Z,101024.03
2022-09-15T18:16:46.906Z,101022.22
2022-09-15T18:19:19.568Z,101027.84
2022-09-15T18:21:54.954Z,101037.44
2022-09-15T18:24:28.366Z,101031.16
2022-09-15T18:27:00.959Z,101028.75
2022-09-15T18:29:33.586Z,101039.41
2022-09-15T18:32:06.439Z,101029.59
2022-09-15T18:34:39.138Z,101041.50
2022-09-15T18:37:13.145Z,101039.81
2022-09-15T18:39:45.934Z,101051.94
2022-09-15T18:42:18.677Z,101068.38
2022-09-15T18:44:51.545Z,101072.69
2022-09-15T18:47:24.220Z,101078.72
2022-09-15T18:49:57.052Z,101073.41
2022-09-15T18:52:31.087Z,101067.06
2022-09-15T18:55:04.600Z,101070.38
2022-09-15T18:57:37.689Z,101068.72
2022-09-15T19:00:13.647Z,101060.97
2022-09-15T19:02:47.205Z,101065.19
2022-09-15T19:05:19.934Z,101066.50
2022-09-15T19:07:55.274Z,101059.03
2022-09-15T19:10:28.152Z,101072.41
2022-09-15T19:13:00.947Z,101067.34
2022-09-15T19:15:36.581Z,101061.53
2022-09-15T19:18:09.290Z,101055.59
2022-09-15T19:20:42.844Z,101061.13
2022-09-15T19:23:17.081Z,101064.72
2022-09-15T19:25:49.822Z,101060.84
2022-09-15T19:28:22.529Z,101060.44
2022-09-15T19:30:55.411Z,101058.94
2022-09-15T19:33:28.421Z,101057.28
2022-09-15T19:36:26.963Z,101065.56
2022-09-15T19:38:57.654Z,101080.13
2022-09-15T19:41:30.541Z,101066.34
2022-09-15T19:44:03.511Z,101080.25
2022-09-15T19:46:36.674Z,101072.56
2022-09-15T19:49:10.066Z,101069.34
2022-09-15T19:51:43.077Z,101068.94
2022-09-15T19:54:17.446Z,101067.03
2022-09-15T19:56:50.332Z,101067.53
2022-09-15T19:59:27.400Z,101063.91
2022-09-15T20:02:01.901Z,101071.13
2022-09-15T20:07:25.057Z,101065.56
2022-09-15T20:09:59.228Z,101060.91
2022-09-15T20:12:32.139Z,101062.44
2022-09-15T20:15:05.680Z,101055.34
2022-09-15T20:17:41.779Z,101057.75
2022-09-15T20:20:14.622Z,101060.97
2022-09-15T20:22:48.612Z,101060.88
2022-09-15T20:25:23.896Z,101059.41
2022-09-15T20:27:56.813Z,101073.78
2022-09-15T20:30:29.432Z,101066.69
2022-09-15T20:33:02.033Z,101067.03
2022-09-15T20:35:34.979Z,101070.75
2022-09-15T20:38:07.645Z,101071.88
2022-09-15T20:40:41.853Z,101064.31
2022-09-15T20:43:14.632Z,101062.69
2022-09-15T20:45:55.984Z,101068.16
2022-09-15T20:48:30.402Z,101072.16
2022-09-15T20:51:05.125Z,101077.78
2022-09-15T20:53:38.651Z,101072.66
2022-09-15T20:56:13.965Z,101077.34
2022-09-15T20:58:47.095Z,101079.06
2022-09-15T21:01:21.145Z,101071.16
2022-09-15T21:03:55.289Z,101071.25
2022-09-15T21:06:29.568Z,101076.84
2022-09-15T21:09:02.553Z,101075.66
2022-09-15T21:11:36.423Z,101078.00
2022-09-15T21:14:09.540Z,101074.09
2022-09-15T21:16:43.506Z,101080.41
2022-09-15T21:19:16.680Z,101073.16
2022-09-15T21:21:49.661Z,101073.59
2022-09-15T21:24:23.009Z,101083.13
2022-09-15T21:27:14.466Z,101079.69
2022-09-15T21:29:48.207Z,101074.56
2022-09-15T21:32:21.061Z,101084.41
2022-09-15T21:34:56.023Z,101079.00
2022-09-15T21:37:28.844Z,101076.16
2022-09-15T21:40:02.009Z,101080.13
2022-09-15T21:42:35.930Z,101079.72
2022-09-15T21:45:09.791Z,101079.69
2022-09-15T21:47:42.642Z,101082.97
2022-09-15T21:50:15.422Z,101066.25
2022-09-15T21:52:54.820Z,101072.47
2022-09-15T21:55:27.640Z,101071.41
2022-09-15T21:58:01.952Z,101073.91
2022-09-15T22:00:37.373Z,101074.69
2022-09-15T22:03:10.850Z,101073.22
2022-09-15T22:05:45.924Z,101068.03
2022-09-15T22:08:19.391Z,101075.91
2022-09-15T22:11:01.172Z,101077.59
2022-09-15T22:13:37.548Z,101069.72
2022-09-15T22:16:13.508Z,101075.97
2022-09-15T22:18:46.789Z,101073.63
2022-09-15T22:21:20.881Z,101071.91
2022-09-15T22:23:56.171Z,101073.56
2022-09-15T22:26:31.137Z,101069.59
2022-09-15T22:29:05.372Z,101073.16
2022-09-15T22:31:38.761Z,101070.38
2022-09-15T22:34:11.610Z,101063.28
2022-09-15T22:36:44.341Z,101075.19
2022-09-15T22:39:17.479Z,101068.16
2022-09-15T22:41:50.382Z,101063.44
2022-09-15T22:44:24.390Z,101061.09
2022-09-15T22:46:57.477Z,101063.06
2022-09-15T22:49:30.005Z,101067.81
2022-09-15T22:52:03.177Z,101068.19
2022-09-15T22:54:36.073Z,101065.84
2022-09-15T22:57:08.826Z,101058.78
2022-09-15T22:59:42.861Z,101064.38
2022-09-15T23:02:16.014Z,101058.03
2022-09-15T23:04:48.754Z,101065.91
2022-09-15T23:07:21.436Z,101065.50
2022-09-15T23:09:54.355Z,101074.66
2022-09-15T23:12:27.388Z,101068.31
2022-09-15T23:15:04.115Z,101063.25
2022-09-15T23:17:36.989Z,101064.41
2022-09-15T23:20:11.221Z,101066.03
2022-09-15T23:22:44.227Z,101056.16
2022-09-15T23:25:17.274Z,101054.59
2022-09-15T23:27:50.495Z,101056.16
2022-09-15T23:30:24.482Z,101051.84
2022-09-15T23:32:57.614Z,101048.66
2022-09-15T23:35:30.312Z,101049.81
2022-09-15T23:38:03.534Z,101048.66
2022-09-15T23:40:36.174Z,101048.66
2022-09-15T23:43:09.154Z,101037.59
2022-09-15T23:45:44.571Z,101039.94
2022-09-15T23:48:17.214Z,101041.88
2022-09-15T23:50:49.915Z,101043.13
2022-09-15T23:53:22.634Z,101040.41
2022-09-15T23:55:55.752Z,101044.84
2022-09-15T23:58:28.516Z,101048.31
